createdAt,value
2023-03-06T00:02:22.870Z,10.97
2023-03-06T00:04:53.580Z,9.73
2023-03-06T00:07:23.984Z,12.00
2023-03-06T00:09:54.549Z,11.93
2023-03-06T00:12:26.468Z,10.27
2023-03-06T00:14:57.034Z,12.53
2023-03-06T00:17:29.374Z,11.83
2023-03-06T00:19:59.929Z,11.20
2023-03-06T00:22:30.369Z,9.97
2023-03-06T00:25:02.412Z,11.03
2023-03-06T00:27:34.507Z,12.80
2023-03-06T00:30:06.155Z,13.47
2023-03-06T00:32:36.691Z,11.73
2023-03-06T00:35:08.135Z,9.30
2023-03-06T00:37:39.307Z,14.53
2023-03-06T00:40:13.421Z,7.90
2023-03-06T00:42:44.276Z,9.87
2023-03-06T00:45:17.601Z,9.97
2023-03-06T00:47:49.180Z,10.60
2023-03-06T00:50:20.891Z,9.07
2023-03-06T00:52:53.404Z,7.50
2023-03-06T00:55:23.901Z,9.30
2023-03-06T00:57:54.409Z,8.10
2023-03-06T01:00:25.007Z,7.40
2023-03-06T01:02:56.091Z,7.43
2023-03-06T01:05:27.603Z,7.83
2023-03-06T01:07:58.006Z,8.30
2023-03-06T01:10:30.496Z,7.97
2023-03-06T01:13:00.949Z,6.23
2023-03-06T01:15:33.141Z,7.93
2023-03-06T01:18:05.209Z,7.73
2023-03-06T01:20:36.057Z,9.58
2023-03-06T01:23:06.404Z,11.53
2023-03-06T01:25:39.601Z,7.90
2023-03-06T01:28:10.180Z,10.10
2023-03-06T01:30:40.781Z,9.77
2023-03-06T01:33:11.322Z,10.78
2023-03-06T01:35:42.208Z,11.20
2023-03-06T01:38:13.400Z,10.53
2023-03-06T01:40:44.095Z,9.05
2023-03-06T01:43:29.658Z,9.00
2023-03-06T01:46:32.231Z,10.50
2023-03-06T01:49:25.410Z,10.30
2023-03-06T01:52:04.729Z,10.63
2023-03-06T01:54:41.181Z,10.48
2023-03-06T01:57:14.761Z,10.50
2023-03-06T01:59:51.358Z,10.67
2023-03-06T02:02:22.989Z,11.53
2023-03-06T02:04:54.833Z,11.23
2023-03-06T02:07:25.724Z,12.23
2023-03-06T02:09:56.420Z,10.37
2023-03-06T02:12:27.885Z,10.53
2023-03-06T02:14:58.629Z,12.47
2023-03-06T02:17:30.192Z,11.77
2023-03-06T02:20:18.533Z,11.63
2023-03-06T02:23:03.462Z,10.00
2023-03-06T02:25:42.508Z,10.10
2023-03-06T02:28:15.902Z,9.10
2023-03-06T02:30:48.049Z,8.43
2023-03-06T02:33:22.453Z,15.33
2023-03-06T02:35:56.166Z,14.83
2023-03-06T02:38:29.708Z,9.47
2023-03-06T02:41:01.888Z,12.47
2023-03-06T02:43:34.993Z,9.90
2023-03-06T02:46:05.786Z,9.73
2023-03-06T02:48:36.861Z,10.77
2023-03-06T02:51:07.986Z,9.13
2023-03-06T02:53:38.448Z,11.03
2023-03-06T02:56:09.770Z,10.13
2023-03-06T02:58:40.502Z,11.23
2023-03-06T03:01:11.055Z,9.30
2023-03-06T03:03:41.806Z,8.57
2023-03-06T03:06:12.327Z,7.33
2023-03-06T03:08:42.895Z,7.57
2023-03-06T03:11:13.496Z,9.30
2023-03-06T03:13:44.082Z,9.17
2023-03-06T03:16:16.439Z,8.83
2023-03-06T03:18:48.180Z,8.30
2023-03-06T03:21:19.398Z,6.40
2023-03-06T03:23:49.994Z,8.67
2023-03-06T03:26:22.869Z,6.73
2023-03-06T03:28:53.630Z,7.97
2023-03-06T03:31:24.322Z,6.77
2023-03-06T03:33:54.932Z,8.47
2023-03-06T03:36:27.132Z,6.40
2023-03-06T03:38:57.793Z,8.00
2023-03-06T03:41:28.312Z,8.15
2023-03-06T03:44:01.692Z,8.50
2023-03-06T03:46:32.296Z,8.37
2023-03-06T03:49:03.078Z,8.43
2023-03-06T03:51:35.276Z,6.57
2023-03-06T03:54:06.775Z,9.30
2023-03-06T03:56:37.566Z,6.17
2023-03-06T03:59:09.296Z,8.07
2023-03-06T04:01:40.010Z,7.37
2023-03-06T04:04:10.990Z,7.43
2023-03-06T04:06:41.464Z,6.92
2023-03-06T04:09:11.874Z,8.33
2023-03-06T04:11:42.412Z,6.77
2023-03-06T04:14:13.030Z,8.83
2023-03-06T04:16:46.089Z,5.70
2023-03-06T04:19:15.875Z,5.73
2023-03-06T04:21:49.174Z,5.43
2023-03-06T04:24:20.431Z,4.13
2023-03-06T04:26:51.743Z,7.37
2023-03-06T04:29:22.476Z,4.65
2023-03-06T04:31:53.388Z,6.77
2023-03-06T04:34:24.352Z,5.33
2023-03-06T04:36:54.851Z,4.43
2023-03-06T04:39:29.581Z,4.77
2023-03-06T04:42:00.891Z,4.83
2023-03-06T04:44:31.688Z,4.37
2023-03-06T04:47:02.253Z,5.13
2023-03-06T04:49:32.875Z,5.80
2023-03-06T04:52:04.949Z,5.30
2023-03-06T04:54:35.443Z,5.93
2023-03-06T04:57:05.973Z,3.87
2023-03-06T04:59:39.109Z,4.90
2023-03-06T05:02:09.837Z,5.00
2023-03-06T05:04:40.597Z,5.23
2023-03-06T05:07:11.734Z,4.80
2023-03-06T05:09:42.402Z,5.10
2023-03-06T05:12:13.106Z,6.10
2023-03-06T05:14:47.673Z,5.57
2023-03-06T05:17:17.210Z,4.50
2023-03-06T05:19:49.175Z,7.60
2023-03-06T05:22:19.707Z,5.53
2023-03-06T05:24:50.302Z,5.93
2023-03-06T05:27:20.783Z,3.90
2023-03-06T05:29:51.369Z,4.87
2023-03-06T05:32:22.745Z,4.50
2023-03-06T05:34:53.557Z,5.60
2023-03-06T05:37:24.338Z,6.13
2023-03-06T05:39:55.119Z,4.43
2023-03-06T05:42:27.637Z,4.87
2023-03-06T05:44:57.772Z,5.93
2023-03-06T05:47:28.412Z,5.22
2023-03-06T05:49:59.004Z,5.57
2023-03-06T05:52:30.566Z,9.23
2023-03-06T05:55:01.008Z,4.93
2023-03-06T05:57:31.417Z,4.13
2023-03-06T06:00:01.976Z,5.53
2023-03-06T06:02:33.722Z,7.10
2023-03-06T06:05:04.707Z,9.97
2023-03-06T06:07:36.520Z,7.83
2023-03-06T06:10:09.354Z,6.37
2023-03-06T06:12:39.853Z,6.07
2023-03-06T06:15:12.574Z,6.60
2023-03-06T06:17:43.181Z,5.80
2023-03-06T06:20:15.025Z,6.80
2023-03-06T06:22:45.948Z,5.90
2023-03-06T06:25:18.287Z,10.23
2023-03-06T06:27:48.847Z,6.40
2023-03-06T06:30:21.710Z,7.77
2023-03-06T06:32:54.777Z,5.23
2023-03-06T06:35:25.205Z,6.70
2023-03-06T06:37:55.838Z,4.07
2023-03-06T06:40:29.703Z,4.33
2023-03-06T06:43:00.246Z,3.97
2023-03-06T06:45:30.946Z,5.60
2023-03-06T06:48:01.388Z,7.87
2023-03-06T06:50:32.013Z,6.30
2023-03-06T06:53:04.630Z,6.03
2023-03-06T06:55:35.353Z,6.35
2023-03-06T06:58:05.836Z,4.30
2023-03-06T07:00:36.445Z,8.57
2023-03-06T07:03:08.004Z,7.13
2023-03-06T07:05:38.673Z,7.87
2023-03-06T07:08:11.578Z,6.37
2023-03-06T07:10:43.781Z,7.17
2023-03-06T07:13:16.665Z,5.00
2023-03-06T07:15:48.423Z,5.70
2023-03-06T07:18:19.245Z,6.97
2023-03-06T07:20:49.692Z,5.63
2023-03-06T07:23:20.269Z,6.00
2023-03-06T07:25:51.123Z,4.60
2023-03-06T07:28:22.881Z,6.07
2023-03-06T07:30:53.459Z,7.07
2023-03-06T07:33:24.143Z,6.97
2023-03-06T07:35:54.994Z,8.43
2023-03-06T07:38:25.580Z,6.37
2023-03-06T07:40:57.845Z,7.20
2023-03-06T07:43:29.716Z,5.60
2023-03-06T07:46:05.017Z,6.10
2023-03-06T07:48:33.648Z,6.17
2023-03-06T07:51:07.807Z,4.90
2023-03-06T07:53:38.352Z,4.30
2023-03-06T07:56:09.539Z,5.10
2023-03-06T07:58:43.003Z,4.73
2023-03-06T08:01:17.050Z,4.23
2023-03-06T08:03:50.225Z,6.03
2023-03-06T08:06:24.054Z,5.93
2023-03-06T08:08:58.209Z,7.63
2023-03-06T08:11:32.263Z,5.37
2023-03-06T08:14:05.085Z,6.23
2023-03-06T08:16:35.933Z,5.30
2023-03-06T08:19:08.309Z,4.37
2023-03-06T08:21:38.896Z,4.03
2023-03-06T08:24:12.683Z,4.92
2023-03-06T08:26:43.279Z,4.67
2023-03-06T08:29:13.942Z,3.60
2023-03-06T08:31:49.796Z,4.00
2023-03-06T08:34:24.139Z,5.17
2023-03-06T08:36:57.175Z,3.60
2023-03-06T08:39:27.623Z,3.67
2023-03-06T08:41:59.916Z,5.72
2023-03-06T08:44:31.322Z,3.27
2023-03-06T08:47:01.971Z,4.50
2023-03-06T08:49:32.956Z,5.23
2023-03-06T08:52:03.831Z,4.50
2023-03-06T08:54:36.557Z,3.62
2023-03-06T08:57:09.128Z,4.67
2023-03-06T08:59:41.384Z,5.20
2023-03-06T09:02:15.268Z,4.37
2023-03-06T09:04:45.869Z,6.70
2023-03-06T09:07:16.696Z,4.13
2023-03-06T09:09:47.126Z,5.07
2023-03-06T09:12:17.959Z,3.58
2023-03-06T09:14:48.587Z,3.98
2023-03-06T09:17:19.388Z,7.83
2023-03-06T09:19:50.978Z,4.13
2023-03-06T09:22:21.628Z,3.77
2023-03-06T09:24:52.644Z,3.80
2023-03-06T09:27:23.325Z,3.92
2023-03-06T09:29:53.868Z,3.73
2023-03-06T09:32:24.986Z,3.42
2023-03-06T09:34:55.539Z,3.77
2023-03-06T09:37:26.091Z,5.10
2023-03-06T09:39:58.026Z,4.03
2023-03-06T09:42:31.998Z,4.20
2023-03-06T09:45:03.732Z,4.77
2023-03-06T09:47:46.834Z,3.93
2023-03-06T09:50:20.372Z,3.85
2023-03-06T09:53:15.405Z,4.10
2023-03-06T09:55:50.639Z,2.62
2023-03-06T09:58:24.149Z,3.35
2023-03-06T10:01:20.458Z,3.87
2023-03-06T10:03:59.812Z,3.58
2023-03-06T10:06:51.100Z,3.53
2023-03-06T10:09:40.033Z,3.25
2023-03-06T10:12:25.426Z,3.10
2023-03-06T10:15:02.122Z,3.45
2023-03-06T10:17:40.789Z,3.37
2023-03-06T10:20:24.954Z,4.07
2023-03-06T10:23:07.440Z,4.90
2023-03-06T10:25:46.931Z,7.28
2023-03-06T10:28:22.119Z,3.17
2023-03-06T10:31:07.834Z,4.20
2023-03-06T10:33:50.249Z,4.60
2023-03-06T10:36:23.575Z,4.47
2023-03-06T10:38:55.849Z,4.50
2023-03-06T10:41:31.300Z,6.55
2023-03-06T10:44:09.038Z,3.05
2023-03-06T10:46:49.508Z,5.30
2023-03-06T10:49:29.958Z,4.07
2023-03-06T10:52:06.997Z,5.03
2023-03-06T10:54:41.583Z,5.37
2023-03-06T10:57:29.858Z,3.57
2023-03-06T11:00:06.801Z,3.10
2023-03-06T11:02:41.245Z,4.17
2023-03-06T11:05:22.623Z,4.55
2023-03-06T11:07:58.629Z,5.07
2023-03-06T11:10:32.328Z,3.50
2023-03-06T11:13:10.370Z,3.77
2023-03-06T11:15:41.790Z,5.30
2023-03-06T11:18:15.408Z,4.00
2023-03-06T11:20:52.564Z,5.37
2023-03-06T11:23:32.354Z,3.97
2023-03-06T11:26:20.786Z,3.15
2023-03-06T11:28:54.316Z,4.77
2023-03-06T11:31:29.070Z,5.37
2023-03-06T11:34:19.756Z,5.03
2023-03-06T11:36:56.168Z,3.02
2023-03-06T11:39:45.810Z,4.83
2023-03-06T11:42:28.096Z,4.90
2023-03-06T11:45:20.912Z,3.22
2023-03-06T11:47:57.340Z,3.35
2023-03-06T11:50:39.530Z,6.17
2023-03-06T11:53:24.924Z,4.50
2023-03-06T11:56:18.030Z,3.72
2023-03-06T11:59:10.849Z,3.70
2023-03-06T12:01:47.245Z,5.28
2023-03-06T12:04:54.519Z,3.60
2023-03-06T12:07:57.052Z,4.60
2023-03-06T12:10:36.639Z,4.65
2023-03-06T12:13:33.405Z,6.13
2023-03-06T12:16:41.044Z,5.35
2023-03-06T12:19:30.762Z,6.07
2023-03-06T12:22:13.503Z,3.97
2023-03-06T12:24:47.006Z,4.05
2023-03-06T12:27:45.771Z,3.93
2023-03-06T12:30:33.056Z,5.00
2023-03-06T12:33:21.647Z,3.10
2023-03-06T12:35:55.336Z,3.97
2023-03-06T12:38:47.547Z,3.03
2023-03-06T12:41:26.984Z,3.10
2023-03-06T12:44:23.029Z,3.10
2023-03-06T12:46:57.739Z,4.55
2023-03-06T12:49:42.057Z,3.67
2023-03-06T12:52:18.524Z,2.25
2023-03-06T12:54:50.477Z,3.77
2023-03-06T12:57:20.258Z,3.03
2023-03-06T12:59:51.430Z,4.35
2023-03-06T13:02:34.641Z,3.50
2023-03-06T13:05:24.610Z,2.45
2023-03-06T13:08:15.956Z,3.08
2023-03-06T13:10:49.770Z,3.75
2023-03-06T13:13:37.433Z,4.87
2023-03-06T13:16:16.563Z,2.72
2023-03-06T13:18:51.368Z,3.37
2023-03-06T13:21:46.196Z,3.52
2023-03-06T13:24:21.298Z,3.00
2023-03-06T13:27:05.418Z,2.23
2023-03-06T13:29:41.555Z,2.85
2023-03-06T13:32:18.269Z,2.75
2023-03-06T13:34:51.115Z,2.95
2023-03-06T13:37:24.686Z,3.27
2023-03-06T13:39:59.899Z,2.80
2023-03-06T13:42:36.532Z,2.42
2023-03-06T13:45:17.893Z,3.50
2023-03-06T13:48:15.833Z,2.98
2023-03-06T13:50:48.751Z,2.80
2023-03-06T13:53:44.572Z,2.92
2023-03-06T13:56:31.114Z,3.12
2023-03-06T13:59:26.476Z,1.95
2023-03-06T14:02:30.405Z,2.67
2023-03-06T14:05:02.733Z,4.17
2023-03-06T14:07:37.747Z,4.87
2023-03-06T14:10:27.203Z,2.60
2023-03-06T14:13:23.668Z,3.90
2023-03-06T14:15:55.912Z,2.20
2023-03-06T14:18:45.105Z,3.37
2023-03-06T14:21:19.114Z,3.83
2023-03-06T14:23:52.639Z,5.17
2023-03-06T14:26:25.781Z,3.47
2023-03-06T14:28:59.152Z,2.67
2023-03-06T14:31:34.882Z,2.85
2023-03-06T14:34:11.299Z,5.03
2023-03-06T14:36:51.033Z,6.27
2023-03-06T14:39:27.364Z,3.72
2023-03-06T14:42:17.213Z,2.75
2023-03-06T14:44:49.333Z,2.00
2023-03-06T14:47:34.385Z,3.17
2023-03-06T14:50:29.335Z,3.45
2023-03-06T14:53:07.821Z,3.55
2023-03-06T14:55:38.706Z,3.95
2023-03-06T14:58:14.940Z,4.43
2023-03-06T15:00:49.507Z,4.40
2023-03-06T15:03:23.144Z,2.67
2023-03-06T15:05:55.033Z,2.50
2023-03-06T15:08:28.508Z,2.17
2023-03-06T15:11:04.880Z,1.40
2023-03-06T15:13:36.466Z,2.75
2023-03-06T15:16:15.859Z,4.93
2023-03-06T15:18:58.159Z,3.90
2023-03-06T15:21:31.130Z,3.37
2023-03-06T15:24:02.063Z,3.30
2023-03-06T15:26:38.751Z,3.07
2023-03-06T15:29:15.234Z,2.63
2023-03-06T15:31:48.262Z,2.67
2023-03-06T15:34:24.453Z,2.73
2023-03-06T15:36:59.407Z,3.60
2023-03-06T15:39:39.158Z,4.37
2023-03-06T15:42:16.129Z,2.53
2023-03-06T15:44:57.556Z,4.03
2023-03-06T15:47:29.030Z,4.00
2023-03-06T15:49:59.425Z,5.30
2023-03-06T15:52:29.898Z,3.27
2023-03-06T15:55:00.337Z,2.47
2023-03-06T15:57:32.813Z,4.20
2023-03-06T16:00:03.900Z,6.03
2023-03-06T16:02:36.533Z,2.93
2023-03-06T16:05:14.051Z,3.20
2023-03-06T16:07:46.633Z,5.73
2023-03-06T16:10:19.728Z,4.57
2023-03-06T16:12:53.096Z,2.17
2023-03-06T16:15:27.875Z,2.90
2023-03-06T16:18:00.345Z,2.73
2023-03-06T16:20:32.841Z,2.42
2023-03-06T16:23:06.429Z,3.37
2023-03-06T16:25:38.232Z,3.63
2023-03-06T16:28:14.999Z,5.12
2023-03-06T16:30:46.226Z,4.50
2023-03-06T16:33:17.137Z,5.30
2023-03-06T16:35:49.997Z,5.90
2023-03-06T16:38:20.562Z,2.67
2023-03-06T16:40:51.000Z,4.27
2023-03-06T16:43:24.799Z,5.47
2023-03-06T16:45:58.042Z,5.13
2023-03-06T16:48:30.374Z,3.03
2023-03-06T16:51:02.328Z,4.30
2023-03-06T16:53:33.936Z,3.83
2023-03-06T16:56:04.828Z,5.22
2023-03-06T16:58:35.256Z,4.90
2023-03-06T17:01:06.228Z,4.87
2023-03-06T17:03:37.380Z,6.63
2023-03-06T17:06:19.187Z,3.63
2023-03-06T17:08:50.841Z,3.37
2023-03-06T17:11:21.492Z,4.73
2023-03-06T17:13:52.080Z,3.80
2023-03-06T17:16:23.267Z,3.23
2023-03-06T17:18:55.537Z,3.27
2023-03-06T17:21:29.454Z,6.20
2023-03-06T17:24:01.691Z,4.23
2023-03-06T17:26:32.812Z,5.27
2023-03-06T17:29:06.585Z,6.20
2023-03-06T17:31:36.369Z,5.70
2023-03-06T17:34:08.713Z,3.67
2023-03-06T17:36:39.193Z,8.27
2023-03-06T17:39:12.219Z,3.23
2023-03-06T17:41:44.148Z,10.13
2023-03-06T17:44:16.535Z,7.53
2023-03-06T17:46:47.196Z,5.03
2023-03-06T17:49:19.518Z,6.70
2023-03-06T17:51:50.404Z,3.65
2023-03-06T17:54:23.016Z,4.27
2023-03-06T17:56:54.718Z,7.95
2023-03-06T17:59:25.163Z,5.87
2023-03-06T18:02:01.912Z,6.07
2023-03-06T18:04:32.850Z,7.13
2023-03-06T18:07:03.437Z,8.03
2023-03-06T18:09:35.402Z,10.03
2023-03-06T18:12:06.375Z,7.20
2023-03-06T18:14:37.086Z,10.37
2023-03-06T18:17:09.932Z,9.23
2023-03-06T18:19:41.389Z,7.00
2023-03-06T18:22:12.112Z,5.93
2023-03-06T18:24:42.966Z,5.93
2023-03-06T18:27:13.637Z,8.13
2023-03-06T18:29:44.171Z,6.87
2023-03-06T18:32:15.328Z,9.57
2023-03-06T18:34:47.970Z,12.80
2023-03-06T18:37:19.236Z,8.80
2023-03-06T18:39:51.469Z,7.37
2023-03-06T18:42:22.062Z,7.63
2023-03-06T18:44:54.078Z,8.37
2023-03-06T18:47:25.440Z,9.17
2023-03-06T18:49:57.649Z,9.43
2023-03-06T18:52:29.848Z,9.33
2023-03-06T18:55:01.551Z,11.10
2023-03-06T18:57:32.886Z,11.50
2023-03-06T19:00:05.081Z,11.25
2023-03-06T19:02:35.497Z,13.20
2023-03-06T19:05:06.921Z,13.97
2023-03-06T19:07:37.855Z,12.77
2023-03-06T19:10:09.289Z,13.63
2023-03-06T19:12:41.283Z,12.60
2023-03-06T19:15:13.160Z,17.80
2023-03-06T19:17:43.795Z,15.67
2023-03-06T19:20:14.282Z,13.37
2023-03-06T19:22:44.979Z,13.43
2023-03-06T19:25:16.434Z,15.17
2023-03-06T19:27:48.567Z,13.97
2023-03-06T19:30:20.968Z,12.60
2023-03-06T19:32:51.543Z,13.17
2023-03-06T19:35:22.552Z,15.97
2023-03-06T19:37:55.053Z,16.60
2023-03-06T19:40:25.557Z,17.80
2023-03-06T19:42:56.652Z,16.17
2023-03-06T19:45:27.415Z,14.53
2023-03-06T19:47:59.608Z,16.30
2023-03-06T19:50:31.238Z,18.20
2023-03-06T19:53:02.336Z,15.93
2023-03-06T19:55:32.968Z,14.83
2023-03-06T19:58:03.757Z,14.87
2023-03-06T20:00:34.572Z,13.70
2023-03-06T20:03:05.783Z,19.13
2023-03-06T20:05:36.326Z,12.73
2023-03-06T20:08:06.872Z,15.80
2023-03-06T20:10:37.996Z,12.73
2023-03-06T20:13:10.970Z,14.07
2023-03-06T20:15:42.380Z,13.33
2023-03-06T20:18:13.710Z,13.07
2023-03-06T20:20:45.935Z,12.03
2023-03-06T20:23:16.780Z,10.17
2023-03-06T20:25:47.316Z,12.93
2023-03-06T20:28:17.780Z,13.33
2023-03-06T20:30:50.913Z,13.00
2023-03-06T20:33:23.332Z,13.07
2023-03-06T20:35:55.397Z,14.03
2023-03-06T20:38:27.669Z,12.10
2023-03-06T20:40:59.750Z,12.50
2023-03-06T20:43:31.591Z,16.20
2023-03-06T20:46:05.949Z,15.07
2023-03-06T20:48:36.331Z,15.13
2023-03-06T20:51:24.821Z,10.67
2023-03-06T20:53:56.086Z,11.20
2023-03-06T20:56:29.693Z,9.80
2023-03-06T20:59:03.397Z,10.43
2023-03-06T21:01:38.369Z,9.70
2023-03-06T21:04:12.343Z,9.60
2023-03-06T21:06:46.511Z,10.47
2023-03-06T21:09:18.169Z,8.90
2023-03-06T21:11:50.126Z,12.23
2023-03-06T21:14:20.611Z,12.27
2023-03-06T21:16:51.032Z,15.53
2023-03-06T21:19:22.915Z,13.40
2023-03-06T21:21:54.708Z,13.07
2023-03-06T21:24:27.115Z,12.20
2023-03-06T21:26:57.711Z,10.23
2023-03-06T21:29:28.240Z,9.33
2023-03-06T21:31:58.670Z,13.17
2023-03-06T21:34:34.584Z,13.70
2023-03-06T21:37:04.249Z,11.40
2023-03-06T21:39:35.127Z,15.27
2023-03-06T21:42:05.929Z,16.00
2023-03-06T21:44:36.529Z,14.80
2023-03-06T21:47:07.684Z,10.07
2023-03-06T21:49:38.545Z,13.37
2023-03-06T21:52:09.050Z,10.93
2023-03-06T21:54:42.320Z,14.40
2023-03-06T21:57:12.825Z,10.07
2023-03-06T21:59:44.859Z,10.47
2023-03-06T22:02:19.315Z,8.97
2023-03-06T22:04:54.610Z,9.07
2023-03-06T22:07:25.472Z,9.20
2023-03-06T22:09:57.466Z,7.70
2023-03-06T22:12:28.197Z,7.23
2023-03-06T22:14:59.031Z,5.97
2023-03-06T22:17:31.038Z,10.23
2023-03-06T22:20:02.031Z,9.10
2023-03-06T22:22:32.823Z,8.97
2023-03-06T22:25:04.999Z,8.73
2023-03-06T22:27:35.508Z,11.03
2023-03-06T22:30:06.824Z,9.13
2023-03-06T22:32:37.308Z,7.70
2023-03-06T22:35:08.506Z,6.00
2023-03-06T22:37:39.049Z,9.17
2023-03-06T22:40:14.021Z,13.00
2023-03-06T22:42:44.610Z,11.00
2023-03-06T22:45:16.503Z,7.67
2023-03-06T22:47:48.420Z,14.97
2023-03-06T22:50:20.553Z,6.87
2023-03-06T22:52:51.022Z,8.27
2023-03-06T22:55:21.579Z,7.33
2023-03-06T22:57:52.094Z,6.87
2023-03-06T23:00:23.064Z,6.80
2023-03-06T23:02:53.940Z,7.03
2023-03-06T23:05:24.682Z,7.87
2023-03-06T23:07:55.229Z,7.33
2023-03-06T23:10:26.063Z,6.10
2023-03-06T23:12:56.606Z,9.03
2023-03-06T23:15:27.236Z,8.87
2023-03-06T23:17:58.031Z,8.80
2023-03-06T23:20:28.534Z,9.37
2023-03-06T23:22:59.215Z,10.17
2023-03-06T23:25:30.199Z,10.07
2023-03-06T23:28:01.142Z,11.60
2023-03-06T23:30:31.774Z,12.43
2023-03-06T23:33:02.409Z,12.10
2023-03-06T23:35:34.633Z,12.30
2023-03-06T23:38:05.679Z,12.00
2023-03-06T23:40:36.113Z,12.03
2023-03-06T23:43:06.835Z,12.93
2023-03-06T23:45:37.691Z,12.47
2023-03-06T23:48:09.012Z,12.50
2023-03-06T23:50:41.181Z,13.70
2023-03-06T23:53:14.439Z,15.17
2023-03-06T23:55:47.068Z,13.73
2023-03-06T23:58:19.008Z,11.63
